createdAt,value
2018-07-01T00:01:12.465Z,17.00
2018-07-01T00:03:40.959Z,17.00
2018-07-01T00:06:10.102Z,16.90
2018-07-01T00:08:39.586Z,16.90
2018-07-01T00:11:08.091Z,16.80
2018-07-01T00:13:36.563Z,16.80
2018-07-01T00:16:05.504Z,16.80
2018-07-01T00:18:34.630Z,16.90
2018-07-01T00:21:03.117Z,16.90
2018-07-01T00:23:31.566Z,16.90
2018-07-01T00:26:00.441Z,17.00
2018-07-01T00:28:29.229Z,17.00
2018-07-01T00:30:59.877Z,17.00
2018-07-01T00:33:28.432Z,16.90
2018-07-01T00:35:57.760Z,16.80
2018-07-01T00:38:26.269Z,16.70
2018-07-01T00:40:54.758Z,16.60
2018-07-01T00:43:23.701Z,16.60
2018-07-01T00:45:52.569Z,16.50
2018-07-01T00:48:21.734Z,16.50
2018-07-01T00:50:50.300Z,16.40
2018-07-01T00:53:18.826Z,16.50
2018-07-01T00:55:47.927Z,16.30
2018-07-01T00:58:17.037Z,16.20
2018-07-01T01:00:45.490Z,16.20
2018-07-01T01:03:13.970Z,15.90
2018-07-01T01:05:42.934Z,15.90
2018-07-01T01:08:11.897Z,15.70
2018-07-01T01:10:40.748Z,15.60
2018-07-01T01:13:09.706Z,15.60
2018-07-01T01:15:38.297Z,15.40
2018-07-01T01:18:06.977Z,15.00
2018-07-01T01:20:36.133Z,15.00
2018-07-01T01:23:04.737Z,14.80
2018-07-01T01:25:33.480Z,14.60
2018-07-01T01:28:02.164Z,14.50
2018-07-01T01:30:30.881Z,14.40
2018-07-01T01:32:59.405Z,14.30
2018-07-01T01:35:28.011Z,14.20
2018-07-01T01:37:56.868Z,13.90
2018-07-01T01:40:29.672Z,13.90
2018-07-01T01:43:02.694Z,13.80
2018-07-01T01:45:35.733Z,13.70
2018-07-01T01:49:07.314Z,13.60
2018-07-01T01:51:41.970Z,13.50
2018-07-01T01:55:14.405Z,13.40
2018-07-01T01:57:49.896Z,13.30
2018-07-01T02:00:23.073Z,13.20
2018-07-01T02:03:00.421Z,13.00
2018-07-01T02:05:36.189Z,12.80
2018-07-01T02:08:06.877Z,12.80
2018-07-01T02:10:35.429Z,12.80
2018-07-01T02:13:03.926Z,12.70
2018-07-01T02:15:37.563Z,12.70
2018-07-01T02:18:06.193Z,12.80
2018-07-01T02:20:37.482Z,12.70
2018-07-01T02:23:11.630Z,12.60
2018-07-01T02:25:41.344Z,12.40
2018-07-01T02:28:10.245Z,12.40
2018-07-01T02:30:38.844Z,12.30
2018-07-01T02:33:07.346Z,12.20
2018-07-01T02:35:36.374Z,12.10
2018-07-01T02:38:05.035Z,12.00
2018-07-01T02:40:33.505Z,12.00
2018-07-01T02:43:03.082Z,11.90
2018-07-01T02:45:32.149Z,11.90
2018-07-01T02:48:00.634Z,11.80
2018-07-01T02:50:29.097Z,11.80
2018-07-01T02:52:58.459Z,11.70
2018-07-01T02:55:27.078Z,11.80
2018-07-01T02:57:55.683Z,11.80
2018-07-01T03:00:24.139Z,11.70
2018-07-01T03:02:53.063Z,11.60
2018-07-01T03:05:21.902Z,11.60
2018-07-01T03:07:50.402Z,11.60
2018-07-01T03:10:19.159Z,11.50
2018-07-01T03:12:48.182Z,11.50
2018-07-01T03:15:16.883Z,11.40
2018-07-01T03:17:45.370Z,11.40
2018-07-01T03:20:14.308Z,11.30
2018-07-01T03:22:43.043Z,11.20
2018-07-01T03:25:11.526Z,11.30
2018-07-01T03:27:40.907Z,11.20
2018-07-01T03:30:09.369Z,11.20
2018-07-01T03:32:37.862Z,11.20
2018-07-01T03:35:06.858Z,11.20
2018-07-01T03:37:35.882Z,11.20
2018-07-01T03:40:04.897Z,11.10
2018-07-01T03:42:33.374Z,11.10
2018-07-01T03:45:02.270Z,11.00
2018-07-01T03:47:31.471Z,11.00
2018-07-01T03:49:59.954Z,11.00
2018-07-01T03:52:28.393Z,11.00
2018-07-01T03:54:57.214Z,11.00
2018-07-01T03:57:26.190Z,11.10
2018-07-01T03:59:54.689Z,11.10
2018-07-01T04:02:23.256Z,11.10
2018-07-01T04:04:51.963Z,11.20
2018-07-01T04:07:20.835Z,11.20
2018-07-01T04:09:49.305Z,11.30
2018-07-01T04:12:18.100Z,11.30
2018-07-01T04:14:46.571Z,11.40
2018-07-01T04:17:15.038Z,11.40
2018-07-01T04:19:43.958Z,11.50
2018-07-01T04:22:12.728Z,11.60
2018-07-01T04:24:41.158Z,11.60
2018-07-01T04:27:09.799Z,11.60
2018-07-01T04:29:39.259Z,11.70
2018-07-01T04:32:09.274Z,11.90
2018-07-01T04:34:39.913Z,12.00
2018-07-01T04:37:15.146Z,12.10
2018-07-01T04:39:45.213Z,12.30
2018-07-01T04:42:15.212Z,12.40
2018-07-01T04:44:45.731Z,12.60
2018-07-01T04:47:14.225Z,12.60
2018-07-01T04:49:42.662Z,12.70
2018-07-01T04:52:11.109Z,12.90
2018-07-01T04:54:41.053Z,13.10
2018-07-01T04:57:12.059Z,13.20
2018-07-01T04:59:40.497Z,14.20
2018-07-01T05:04:40.604Z,17.50
2018-07-01T05:07:09.462Z,18.80
2018-07-01T05:09:37.874Z,19.80
2018-07-01T05:12:09.869Z,20.70
2018-07-01T05:14:39.358Z,21.40
2018-07-01T05:19:39.074Z,22.60
2018-07-01T05:22:09.275Z,22.90
2018-07-01T05:24:37.679Z,23.50
2018-07-01T05:27:06.194Z,23.70
2018-07-01T05:29:34.600Z,24.30
2018-07-01T05:32:03.033Z,24.40
2018-07-01T05:34:35.791Z,24.50
2018-07-01T05:37:04.579Z,25.10
2018-07-01T05:39:36.313Z,24.70
2018-07-01T05:42:06.948Z,23.70
2018-07-01T05:44:35.355Z,23.70
2018-07-01T05:47:03.859Z,23.80
2018-07-01T05:49:33.609Z,24.50
2018-07-01T05:52:02.848Z,25.10
2018-07-01T05:54:31.399Z,25.30
2018-07-01T05:56:59.837Z,24.50
2018-07-01T05:59:28.371Z,25.00
2018-07-01T06:01:58.994Z,24.30
2018-07-01T06:04:28.394Z,24.50
2018-07-01T06:06:56.838Z,24.20
2018-07-01T06:09:25.246Z,24.50
2018-07-01T06:11:54.320Z,25.00
2018-07-01T06:14:25.502Z,25.20
2018-07-01T06:16:54.819Z,25.50
2018-07-01T06:19:23.237Z,25.20
2018-07-01T06:21:51.644Z,25.90
2018-07-01T06:24:22.177Z,26.20
2018-07-01T06:26:52.271Z,26.90
2018-07-01T06:29:21.317Z,26.00
2018-07-01T06:31:52.050Z,25.90
2018-07-01T06:34:21.774Z,26.60
2018-07-01T06:36:51.247Z,26.30
2018-07-01T06:39:21.754Z,26.00
2018-07-01T06:41:51.616Z,26.00
2018-07-01T06:44:21.230Z,25.30
2018-07-01T06:46:51.579Z,25.80
2018-07-01T06:49:21.688Z,25.70
2018-07-01T06:51:51.710Z,25.40
2018-07-01T06:54:21.535Z,25.70
2018-07-01T06:56:50.612Z,26.30
2018-07-01T06:59:21.207Z,26.80
2018-07-01T07:01:51.591Z,27.40
2018-07-01T07:04:20.506Z,26.80
2018-07-01T07:06:49.602Z,26.80
2018-07-01T07:09:18.768Z,26.40
2018-07-01T07:11:48.410Z,26.90
2018-07-01T07:14:18.520Z,25.70
2018-07-01T07:16:50.369Z,27.30
2018-07-01T07:19:20.541Z,27.20
2018-07-01T07:21:49.582Z,27.00
2018-07-01T07:24:19.173Z,27.30
2018-07-01T07:26:48.963Z,24.80
2018-07-01T07:29:18.089Z,26.20
2018-07-01T07:31:46.669Z,27.10
2018-07-01T07:34:15.525Z,27.00
2018-07-01T07:36:46.378Z,26.80
2018-07-01T07:39:15.501Z,27.20
2018-07-01T07:41:43.914Z,26.80
2018-07-01T07:44:12.399Z,27.30
2018-07-01T07:46:43.574Z,28.10
2018-07-01T07:49:12.578Z,27.70
2018-07-01T07:51:40.987Z,28.60
2018-07-01T07:54:10.370Z,29.50
2018-07-01T07:56:41.517Z,29.30
2018-07-01T07:59:09.986Z,29.40
2018-07-01T08:01:38.453Z,28.90
2018-07-01T08:04:07.098Z,29.20
2018-07-01T08:06:35.513Z,28.90
2018-07-01T08:09:06.414Z,28.40
2018-07-01T08:11:34.850Z,28.40
2018-07-01T08:14:04.672Z,28.60
2018-07-01T08:16:35.085Z,28.50
2018-07-01T08:19:03.520Z,29.20
2018-07-01T08:21:35.119Z,28.00
2018-07-01T08:24:03.674Z,27.30
2018-07-01T08:26:35.348Z,27.90
2018-07-01T08:29:03.968Z,28.10
2018-07-01T08:31:34.210Z,28.90
2018-07-01T08:34:02.681Z,28.10
2018-07-01T08:36:31.127Z,28.30
2018-07-01T08:39:00.921Z,28.40
2018-07-01T08:41:35.089Z,28.20
2018-07-01T08:44:04.883Z,28.50
2018-07-01T08:46:34.409Z,28.50
2018-07-01T08:49:03.530Z,28.90
2018-07-01T08:51:31.963Z,28.70
2018-07-01T08:54:00.541Z,29.10
2018-07-01T08:56:30.039Z,29.60
2018-07-01T08:58:58.486Z,29.70
2018-07-01T09:01:28.006Z,29.30
2018-07-01T09:03:56.902Z,28.90
2018-07-01T09:06:26.147Z,29.30
2018-07-01T09:08:54.737Z,29.30
2018-07-01T09:11:23.749Z,29.90
2018-07-01T09:13:52.576Z,30.30
2018-07-01T09:16:23.402Z,30.80
2018-07-01T09:18:51.937Z,31.00
2018-07-01T09:21:20.592Z,30.20
2018-07-01T09:23:49.947Z,30.40
2018-07-01T09:26:20.937Z,30.50
2018-07-01T09:28:49.341Z,29.40
2018-07-01T09:31:17.757Z,29.90
2018-07-01T09:33:47.253Z,29.90
2018-07-01T09:36:15.903Z,29.80
2018-07-01T09:38:50.062Z,29.40
2018-07-01T09:41:21.263Z,29.50
2018-07-01T09:43:51.762Z,29.00
2018-07-01T09:46:20.561Z,29.30
2018-07-01T09:48:48.997Z,30.10
2018-07-01T09:51:18.228Z,29.90
2018-07-01T09:53:50.025Z,29.90
2018-07-01T09:56:18.417Z,29.90
2018-07-01T09:58:48.193Z,29.80
2018-07-01T10:01:16.595Z,29.70
2018-07-01T10:03:45.035Z,30.10
2018-07-01T10:06:13.699Z,30.10
2018-07-01T10:08:42.466Z,31.20
2018-07-01T10:11:12.335Z,31.30
2018-07-01T10:13:41.508Z,30.60
2018-07-01T10:16:10.277Z,31.20
2018-07-01T10:18:39.139Z,31.70
2018-07-01T10:21:07.570Z,31.70
2018-07-01T10:23:37.197Z,31.10
2018-07-01T10:26:05.754Z,30.80
2018-07-01T10:28:34.306Z,31.70
2018-07-01T10:31:03.090Z,31.00
2018-07-01T10:33:31.882Z,31.60
2018-07-01T10:36:00.352Z,32.30
2018-07-01T10:38:29.423Z,31.50
2018-07-01T10:40:58.918Z,31.60
2018-07-01T10:43:28.245Z,30.90
2018-07-01T10:45:56.918Z,31.20
2018-07-01T10:48:25.389Z,32.30
2018-07-01T10:50:54.183Z,31.20
2018-07-01T10:53:23.594Z,31.30
2018-07-01T10:55:52.109Z,31.50
2018-07-01T10:58:20.542Z,31.90
2018-07-01T11:00:49.490Z,31.70
2018-07-01T11:03:18.787Z,31.40
2018-07-01T11:05:47.264Z,30.30
2018-07-01T11:08:15.706Z,30.40
2018-07-01T11:10:44.944Z,30.00
2018-07-01T11:13:13.558Z,31.00
2018-07-01T11:15:42.023Z,31.40
2018-07-01T11:18:11.037Z,31.80
2018-07-01T11:20:39.756Z,30.50
2018-07-01T11:23:08.197Z,30.40
2018-07-01T11:25:36.814Z,31.30
2018-07-01T11:28:06.934Z,31.70
2018-07-01T11:30:36.002Z,31.50
2018-07-01T11:33:04.482Z,30.50
2018-07-01T11:35:33.664Z,31.40
2018-07-01T11:38:02.239Z,31.40
2018-07-01T11:40:33.241Z,31.00
2018-07-01T11:43:01.693Z,31.30
2018-07-01T11:45:31.798Z,30.90
2018-07-01T11:48:00.242Z,31.30
2018-07-01T11:50:28.708Z,31.90
2018-07-01T11:52:59.168Z,31.70
2018-07-01T11:55:28.541Z,30.90
2018-07-01T11:57:57.066Z,30.90
2018-07-01T12:00:25.495Z,30.70
2018-07-01T12:05:25.160Z,30.90
2018-07-01T12:07:53.887Z,30.70
2018-07-01T12:10:22.830Z,30.20
2018-07-01T12:12:52.067Z,30.40
2018-07-01T12:15:22.483Z,30.70
2018-07-01T12:17:50.868Z,31.10
2018-07-01T12:20:19.495Z,31.30
2018-07-01T12:22:48.226Z,30.80
2018-07-01T12:25:17.243Z,30.30
2018-07-01T12:27:46.360Z,30.90
2018-07-01T12:30:16.253Z,31.30
2018-07-01T12:32:45.421Z,31.40
2018-07-01T12:35:13.874Z,31.60
2018-07-01T12:37:42.893Z,30.30
2018-07-01T12:40:11.318Z,29.90
2018-07-01T12:42:40.354Z,30.10
2018-07-01T12:45:09.504Z,30.20
2018-07-01T12:47:38.435Z,30.20
2018-07-01T12:50:07.779Z,29.80
2018-07-01T12:52:36.190Z,29.30
2018-07-01T12:55:05.297Z,29.50
2018-07-01T12:57:34.444Z,29.30
2018-07-01T13:00:02.978Z,29.60
2018-07-01T13:02:32.314Z,29.70
2018-07-01T13:05:00.844Z,29.60
2018-07-01T13:07:29.269Z,30.10
2018-07-01T13:09:57.990Z,29.40
2018-07-01T13:12:26.829Z,29.40
2018-07-01T13:14:55.365Z,29.20
2018-07-01T13:17:23.968Z,29.30
2018-07-01T13:19:52.426Z,29.90
2018-07-01T13:22:21.036Z,29.40
2018-07-01T13:24:49.458Z,29.30
2018-07-01T13:27:26.865Z,28.70
2018-07-01T13:29:55.490Z,29.00
2018-07-01T13:32:23.908Z,28.50
2018-07-01T13:34:52.349Z,28.80
2018-07-01T13:37:20.805Z,28.70
2018-07-01T13:39:49.506Z,28.50
2018-07-01T13:47:20.277Z,28.70
2018-07-01T13:49:58.545Z,28.50
2018-07-01T13:52:27.307Z,28.00
2018-07-01T13:54:58.852Z,27.60
2018-07-01T13:57:28.499Z,27.60
2018-07-01T13:59:58.315Z,27.50
2018-07-01T14:02:29.482Z,27.50
2018-07-01T14:04:59.812Z,27.60
2018-07-01T14:07:29.769Z,27.60
2018-07-01T14:09:58.244Z,27.50
2018-07-01T14:12:26.712Z,27.30
2018-07-01T14:14:55.129Z,27.40
2018-07-01T14:17:23.701Z,27.20
2018-07-01T14:19:52.244Z,27.00
2018-07-01T14:22:20.662Z,27.00
2018-07-01T14:24:49.442Z,27.00
2018-07-01T14:27:17.881Z,26.70
2018-07-01T14:29:46.303Z,26.70
2018-07-01T14:32:14.945Z,26.60
2018-07-01T14:34:43.370Z,26.60
2018-07-01T14:37:11.808Z,26.50
2018-07-01T14:39:40.275Z,26.50
2018-07-01T14:42:08.825Z,26.60
2018-07-01T14:44:37.354Z,26.50
2018-07-01T14:47:05.788Z,26.50
2018-07-01T14:49:34.402Z,26.50
2018-07-01T14:52:02.967Z,26.30
2018-07-01T14:54:31.393Z,26.30
2018-07-01T14:56:59.798Z,26.30
2018-07-01T14:59:28.253Z,26.30
2018-07-01T15:02:02.785Z,26.10
2018-07-01T15:04:32.100Z,26.10
2018-07-01T15:07:01.301Z,26.00
2018-07-01T15:09:30.437Z,25.90
2018-07-01T15:11:58.918Z,25.80
2018-07-01T15:14:27.771Z,26.00
2018-07-01T15:16:56.506Z,26.10
2018-07-01T15:19:24.940Z,26.10
2018-07-01T15:21:53.362Z,26.00
2018-07-01T15:24:21.741Z,25.90
2018-07-01T15:26:50.385Z,25.90
2018-07-01T15:29:19.934Z,25.80
2018-07-01T15:31:49.725Z,25.70
2018-07-01T15:34:19.239Z,25.70
2018-07-01T15:36:48.733Z,25.70
2018-07-01T15:39:18.106Z,25.60
2018-07-01T15:41:47.362Z,25.60
2018-07-01T15:44:16.687Z,25.50
2018-07-01T15:46:46.199Z,25.40
2018-07-01T15:49:14.708Z,25.40
2018-07-01T15:51:43.588Z,25.40
2018-07-01T15:54:12.638Z,25.40
2018-07-01T15:56:41.842Z,25.50
2018-07-01T16:01:40.068Z,25.60
2018-07-01T16:04:09.459Z,25.60
2018-07-01T16:06:38.702Z,25.40
2018-07-01T16:09:10.532Z,25.30
2018-07-01T16:11:40.223Z,25.20
2018-07-01T16:14:09.551Z,25.30
2018-07-01T16:16:38.936Z,25.40
2018-07-01T16:19:23.934Z,25.30
2018-07-01T16:21:53.285Z,25.20
2018-07-01T16:24:22.518Z,25.20
2018-07-01T16:27:00.654Z,25.20
2018-07-01T16:29:30.231Z,25.30
2018-07-01T16:31:59.309Z,25.20
2018-07-01T16:34:28.600Z,25.30
2018-07-01T16:36:58.069Z,25.30
2018-07-01T16:39:27.416Z,25.20
2018-07-01T16:41:57.973Z,25.20
2018-07-01T16:44:27.832Z,25.20
2018-07-01T16:46:56.577Z,25.20
2018-07-01T16:49:25.191Z,25.00
2018-07-01T16:51:53.998Z,25.00
2018-07-01T16:54:22.717Z,25.10
2018-07-01T16:56:51.169Z,25.00
2018-07-01T16:59:19.625Z,25.00
2018-07-01T17:01:48.157Z,24.80
2018-07-01T17:04:16.958Z,24.80
2018-07-01T17:06:45.566Z,24.80
2018-07-01T17:09:13.994Z,24.80
2018-07-01T17:11:49.131Z,24.80
2018-07-01T17:14:18.565Z,24.70
2018-07-01T17:16:47.853Z,24.80
2018-07-01T17:19:19.651Z,24.70
2018-07-01T17:21:48.612Z,24.70
2018-07-01T17:24:17.423Z,24.70
2018-07-01T17:26:46.191Z,24.70
2018-07-01T17:29:14.889Z,24.70
2018-07-01T17:31:48.953Z,24.60
2018-07-01T17:34:17.415Z,24.50
2018-07-01T17:36:46.138Z,24.40
2018-07-01T17:39:14.668Z,24.30
2018-07-01T17:41:43.098Z,24.30
2018-07-01T17:44:12.113Z,24.30
2018-07-01T17:46:41.365Z,24.30
2018-07-01T17:49:10.482Z,24.20
2018-07-01T17:51:38.970Z,24.20
2018-07-01T17:54:07.722Z,24.10
2018-07-01T17:56:37.798Z,24.10
2018-07-01T17:59:06.233Z,24.10
2018-07-01T18:01:35.750Z,24.00
2018-07-01T18:04:05.881Z,23.90
2018-07-01T18:06:35.103Z,23.80
2018-07-01T18:09:05.509Z,23.80
2018-07-01T18:11:34.698Z,23.80
2018-07-01T18:14:03.314Z,23.70
2018-07-01T18:16:31.867Z,23.70
2018-07-01T18:19:00.634Z,23.60
2018-07-01T18:21:40.296Z,23.60
2018-07-01T18:24:27.544Z,23.50
2018-07-01T18:26:28.225Z,23.50
2018-07-01T18:29:05.472Z,23.40
2018-07-01T18:31:26.215Z,23.30
2018-07-01T18:33:54.614Z,23.30
2018-07-01T18:36:23.013Z,23.30
2018-07-01T18:38:51.428Z,23.20
2018-07-01T18:41:19.824Z,23.10
2018-07-01T18:43:48.317Z,23.00
2018-07-01T18:46:17.640Z,23.00
2018-07-01T18:48:49.358Z,22.80
2018-07-01T18:51:19.013Z,22.80
2018-07-01T18:53:47.601Z,22.70
2018-07-01T18:56:16.666Z,22.60
2018-07-01T18:58:45.152Z,22.50
2018-07-01T19:01:13.636Z,22.40
2018-07-01T19:03:42.169Z,22.30
2018-07-01T19:06:10.925Z,22.20
2018-07-01T19:08:40.805Z,22.10
2018-07-01T19:11:10.640Z,22.00
2018-07-01T19:13:39.998Z,21.90
2018-07-01T19:16:09.293Z,21.80
2018-07-01T19:18:38.689Z,21.70
2018-07-01T19:21:09.285Z,21.50
2018-07-01T19:23:39.192Z,21.40
2018-07-01T19:26:09.045Z,21.30
2018-07-01T19:28:38.406Z,21.20
2018-07-01T19:31:07.544Z,20.90
2018-07-01T19:33:36.275Z,20.80
2018-07-01T19:36:05.093Z,20.60
2018-07-01T19:38:34.037Z,20.40
2018-07-01T19:41:03.241Z,20.20
2018-07-01T19:43:32.217Z,20.00
2018-07-01T19:46:00.559Z,20.10
2018-07-01T19:48:29.427Z,20.10
2018-07-01T19:50:58.594Z,19.90
2018-07-01T19:53:27.946Z,19.80
2018-07-01T19:55:57.424Z,19.80
2018-07-01T19:58:26.583Z,19.90
2018-07-01T20:00:55.311Z,19.90
2018-07-01T20:03:24.826Z,20.00
2018-07-01T20:05:54.288Z,20.00
2018-07-01T20:08:23.649Z,19.90
2018-07-01T20:13:21.334Z,19.80
2018-07-01T20:15:49.886Z,19.80
2018-07-01T20:18:19.278Z,19.70
2018-07-01T20:20:48.091Z,19.60
2018-07-01T20:23:16.653Z,19.50
2018-07-01T20:25:45.526Z,19.50
2018-07-01T20:28:15.360Z,19.20
2018-07-01T20:30:59.760Z,18.90
2018-07-01T20:33:28.269Z,18.70
2018-07-01T20:35:57.194Z,18.40
2018-07-01T20:38:26.453Z,18.20
2018-07-01T20:40:56.098Z,18.00
2018-07-01T20:43:24.553Z,17.60
2018-07-01T20:45:53.240Z,17.50
2018-07-01T20:48:21.644Z,17.30
2018-07-01T20:50:50.063Z,17.10
2018-07-01T20:53:20.676Z,17.20
2018-07-01T20:55:49.107Z,17.10
2018-07-01T20:58:17.646Z,17.20
2018-07-01T21:00:46.062Z,17.40
2018-07-01T21:03:14.625Z,17.60
2018-07-01T21:05:43.128Z,17.80
2018-07-01T21:08:11.653Z,18.00
2018-07-01T21:10:40.116Z,18.30
2018-07-01T21:13:08.819Z,18.30
2018-07-01T21:15:38.339Z,18.30
2018-07-01T21:18:06.806Z,18.40
2018-07-01T21:20:35.316Z,18.30
2018-07-01T21:23:03.908Z,18.20
2018-07-01T21:28:00.578Z,18.20
2018-07-01T21:30:30.302Z,18.20
2018-07-01T21:32:59.236Z,18.10
2018-07-01T21:35:27.787Z,18.20
2018-07-01T21:37:56.464Z,18.10
2018-07-01T21:40:32.874Z,18.20
2018-07-01T21:43:01.559Z,18.10
2018-07-01T21:45:30.031Z,18.00
2018-07-01T21:47:58.666Z,17.90
2018-07-01T21:50:27.225Z,17.80
2018-07-01T21:52:55.682Z,17.80
2018-07-01T21:55:25.328Z,17.60
2018-07-01T21:57:56.141Z,17.40
2018-07-01T22:00:31.128Z,17.20
2018-07-01T22:03:08.518Z,17.00
2018-07-01T22:05:37.088Z,16.80
2018-07-01T22:08:05.546Z,16.60
2018-07-01T22:11:42.997Z,16.20
2018-07-01T22:14:21.462Z,16.00
2018-07-01T22:16:49.953Z,15.70
2018-07-01T22:19:19.063Z,15.40
2018-07-01T22:21:48.909Z,15.30
2018-07-01T22:24:18.707Z,15.10
2018-07-01T22:26:47.411Z,15.00
2018-07-01T22:29:17.287Z,15.00
2018-07-01T22:31:46.221Z,14.90
2018-07-01T22:34:16.791Z,14.80
2018-07-01T22:36:46.488Z,14.60
2018-07-01T22:39:30.654Z,14.50
2018-07-01T22:42:00.737Z,14.30
2018-07-01T22:44:30.182Z,14.30
2018-07-01T22:46:59.494Z,14.10
2018-07-01T22:49:28.409Z,14.00
2018-07-01T22:51:57.682Z,13.90
2018-07-01T22:54:26.470Z,13.80
2018-07-01T22:56:55.664Z,13.70
2018-07-01T22:59:24.957Z,13.70
2018-07-01T23:03:04.881Z,13.50
2018-07-01T23:05:34.217Z,13.40
2018-07-01T23:08:03.378Z,13.20
2018-07-01T23:10:32.705Z,13.20
2018-07-01T23:13:02.126Z,13.20
2018-07-01T23:15:31.354Z,13.10
2018-07-01T23:18:00.481Z,13.00
2018-07-01T23:20:29.376Z,12.90
2018-07-01T23:22:58.465Z,12.90
2018-07-01T23:25:27.557Z,12.80
2018-07-01T23:27:56.431Z,12.70
2018-07-01T23:30:25.624Z,12.60
2018-07-01T23:32:54.749Z,12.50
2018-07-01T23:35:34.708Z,12.40
2018-07-01T23:38:03.887Z,12.30
2018-07-01T23:40:32.814Z,12.30
2018-07-01T23:43:01.982Z,12.20
2018-07-01T23:45:30.814Z,12.30
2018-07-01T23:47:59.731Z,12.20
2018-07-01T23:50:28.686Z,12.20
2018-07-01T23:52:57.802Z,12.20
2018-07-01T23:57:55.111Z,12.00
